sensor_id;sensor_type;location;lat;lon;timestamp;temperature;humidity
29207;DHT22;16247;50.840;4.382;2022-08-24T00:00:54;24.00;99.90
29207;DHT22;16247;50.840;4.382;2022-08-24T00:03:21;24.00;99.90
29207;DHT22;16247;50.840;4.382;2022-08-24T00:05:47;24.00;99.90
29207;DHT22;16247;50.840;4.382;2022-08-24T00:08:14;24.00;99.90
29207;DHT22;16247;50.840;4.382;2022-08-24T00:10:40;24.00;99.90
29207;DHT22;16247;50.840;4.382;2022-08-24T00:13:06;23.90;99.90
29207;DHT22;16247;50.840;4.382;2022-08-24T00:15:32;23.90;99.90
29207;DHT22;16247;50.840;4.382;2022-08-24T00:17:58;24.00;99.90
29207;DHT22;16247;50.840;4.382;2022-08-24T00:20:24;24.00;99.90
29207;DHT22;16247;50.840;4.382;2022-08-24T00:22:51;23.90;99.90
29207;DHT22;16247;50.840;4.382;2022-08-24T00:25:17;23.90;99.90
29207;DHT22;16247;50.840;4.382;2022-08-24T00:27:44;23.80;99.90
29207;DHT22;16247;50.840;4.382;2022-08-24T00:30:13;23.80;99.90
29207;DHT22;16247;50.840;4.382;2022-08-24T00:32:41;23.90;99.90
29207;DHT22;16247;50.840;4.382;2022-08-24T00:35:07;23.80;99.90
29207;DHT22;16247;50.840;4.382;2022-08-24T00:37:34;23.60;99.90
29207;DHT22;16247;50.840;4.382;2022-08-24T00:40:01;23.70;99.90
29207;DHT22;16247;50.840;4.382;2022-08-24T00:42:27;23.80;99.90
29207;DHT22;16247;50.840;4.382;2022-08-24T00:44:53;23.70;99.90
29207;DHT22;16247;50.840;4.382;2022-08-24T00:47:31;23.60;99.90
29207;DHT22;16247;50.840;4.382;2022-08-24T00:50:04;23.50;99.90
29207;DHT22;16247;50.840;4.382;2022-08-24T00:52:34;23.40;99.90
29207;DHT22;16247;50.840;4.382;2022-08-24T00:55:06;23.30;99.90
29207;DHT22;16247;50.840;4.382;2022-08-24T00:57:35;23.30;99.90
29207;DHT22;16247;50.840;4.382;2022-08-24T01:00:10;23.30;99.90
29207;DHT22;16247;50.840;4.382;2022-08-24T01:02:38;23.40;99.90
29207;DHT22;16247;50.840;4.382;2022-08-24T01:05:08;23.40;99.90
29207;DHT22;16247;50.840;4.382;2022-08-24T01:07:36;23.50;99.90
29207;DHT22;16247;50.840;4.382;2022-08-24T01:10:06;23.70;99.90
29207;DHT22;16247;50.840;4.382;2022-08-24T01:12:34;23.70;99.90
29207;DHT22;16247;50.840;4.382;2022-08-24T01:15:03;23.60;99.90
29207;DHT22;16247;50.840;4.382;2022-08-24T01:17:29;23.50;99.90
29207;DHT22;16247;50.840;4.382;2022-08-24T01:20:14;23.40;99.90
29207;DHT22;16247;50.840;4.382;2022-08-24T01:22:56;23.30;99.90
29207;DHT22;16247;50.840;4.382;2022-08-24T01:25:26;23.30;99.90
29207;DHT22;16247;50.840;4.382;2022-08-24T01:27:55;23.30;99.90
29207;DHT22;16247;50.840;4.382;2022-08-24T01:30:21;23.40;99.90
29207;DHT22;16247;50.840;4.382;2022-08-24T01:32:55;23.30;99.90
29207;DHT22;16247;50.840;4.382;2022-08-24T01:35:22;23.20;99.90
29207;DHT22;16247;50.840;4.382;2022-08-24T01:37:49;23.20;99.90
29207;DHT22;16247;50.840;4.382;2022-08-24T01:40:17;23.40;99.90
29207;DHT22;16247;50.840;4.382;2022-08-24T01:42:48;23.40;99.90
29207;DHT22;16247;50.840;4.382;2022-08-24T01:45:15;23.40;99.90
29207;DHT22;16247;50.840;4.382;2022-08-24T01:47:40;23.40;99.90
29207;DHT22;16247;50.840;4.382;2022-08-24T01:50:06;23.40;99.90
29207;DHT22;16247;50.840;4.382;2022-08-24T01:52:32;23.40;99.90
29207;DHT22;16247;50.840;4.382;2022-08-24T01:54:58;23.30;99.90
29207;DHT22;16247;50.840;4.382;2022-08-24T01:57:26;23.30;99.90
29207;DHT22;16247;50.840;4.382;2022-08-24T01:59:52;23.20;99.90
29207;DHT22;16247;50.840;4.382;2022-08-24T02:02:23;23.20;99.90
29207;DHT22;16247;50.840;4.382;2022-08-24T02:04:50;23.30;99.90
29207;DHT22;16247;50.840;4.382;2022-08-24T02:07:17;23.20;99.90
29207;DHT22;16247;50.840;4.382;2022-08-24T02:09:45;23.30;99.90
29207;DHT22;16247;50.840;4.382;2022-08-24T02:12:11;23.30;99.90
29207;DHT22;16247;50.840;4.382;2022-08-24T02:14:37;23.20;99.90
29207;DHT22;16247;50.840;4.382;2022-08-24T02:17:05;23.20;99.90
29207;DHT22;16247;50.840;4.382;2022-08-24T02:19:31;23.30;99.90
29207;DHT22;16247;50.840;4.382;2022-08-24T02:21:57;23.30;99.90
29207;DHT22;16247;50.840;4.382;2022-08-24T02:24:23;23.30;99.90
29207;DHT22;16247;50.840;4.382;2022-08-24T02:26:48;23.10;99.90
29207;DHT22;16247;50.840;4.382;2022-08-24T02:29:14;23.00;99.90
29207;DHT22;16247;50.840;4.382;2022-08-24T02:31:40;23.00;99.90
29207;DHT22;16247;50.840;4.382;2022-08-24T02:34:06;23.00;99.90
29207;DHT22;16247;50.840;4.382;2022-08-24T02:36:34;22.90;99.90
29207;DHT22;16247;50.840;4.382;2022-08-24T02:39:00;22.90;99.90
29207;DHT22;16247;50.840;4.382;2022-08-24T02:41:25;22.90;99.90
29207;DHT22;16247;50.840;4.382;2022-08-24T02:43:53;22.90;99.90
29207;DHT22;16247;50.840;4.382;2022-08-24T02:46:21;22.90;99.90
29207;DHT22;16247;50.840;4.382;2022-08-24T02:48:47;22.90;99.90
29207;DHT22;16247;50.840;4.382;2022-08-24T02:51:26;22.90;99.90
29207;DHT22;16247;50.840;4.382;2022-08-24T02:53:52;22.80;99.90
29207;DHT22;16247;50.840;4.382;2022-08-24T02:56:19;22.80;99.90
29207;DHT22;16247;50.840;4.382;2022-08-24T02:58:47;22.80;99.90
29207;DHT22;16247;50.840;4.382;2022-08-24T03:01:14;22.80;99.90
29207;DHT22;16247;50.840;4.382;2022-08-24T03:03:40;22.80;99.90
29207;DHT22;16247;50.840;4.382;2022-08-24T03:06:07;22.80;99.90
29207;DHT22;16247;50.840;4.382;2022-08-24T03:08:34;22.80;99.90
29207;DHT22;16247;50.840;4.382;2022-08-24T03:11:01;22.80;99.90
29207;DHT22;16247;50.840;4.382;2022-08-24T03:13:28;22.70;99.90
29207;DHT22;16247;50.840;4.382;2022-08-24T03:15:55;22.70;99.90
29207;DHT22;16247;50.840;4.382;2022-08-24T03:18:22;22.70;99.90
29207;DHT22;16247;50.840;4.382;2022-08-24T03:20:50;22.60;99.90
29207;DHT22;16247;50.840;4.382;2022-08-24T03:23:16;22.60;99.90
29207;DHT22;16247;50.840;4.382;2022-08-24T03:25:41;22.60;99.90
29207;DHT22;16247;50.840;4.382;2022-08-24T03:28:07;22.70;99.90
29207;DHT22;16247;50.840;4.382;2022-08-24T03:30:33;22.60;99.90
29207;DHT22;16247;50.840;4.382;2022-08-24T03:32:59;22.60;99.90
29207;DHT22;16247;50.840;4.382;2022-08-24T03:35:24;22.60;99.90
29207;DHT22;16247;50.840;4.382;2022-08-24T03:37:50;22.70;99.90
29207;DHT22;16247;50.840;4.382;2022-08-24T03:40:17;22.70;99.90
29207;DHT22;16247;50.840;4.382;2022-08-24T03:42:44;22.60;99.90
29207;DHT22;16247;50.840;4.382;2022-08-24T03:45:10;22.60;99.90
29207;DHT22;16247;50.840;4.382;2022-08-24T03:47:36;22.60;99.90
29207;DHT22;16247;50.840;4.382;2022-08-24T03:50:03;22.60;99.90
29207;DHT22;16247;50.840;4.382;2022-08-24T03:52:30;22.50;99.90
29207;DHT22;16247;50.840;4.382;2022-08-24T03:54:55;22.60;99.90
29207;DHT22;16247;50.840;4.382;2022-08-24T03:57:21;22.60;99.90
29207;DHT22;16247;50.840;4.382;2022-08-24T03:59:47;22.50;99.90
29207;DHT22;16247;50.840;4.382;2022-08-24T04:02:13;22.50;99.90
29207;DHT22;16247;50.840;4.382;2022-08-24T04:04:39;22.50;99.90
29207;DHT22;16247;50.840;4.382;2022-08-24T04:07:05;22.50;99.90
29207;DHT22;16247;50.840;4.382;2022-08-24T04:09:30;22.40;99.90
29207;DHT22;16247;50.840;4.382;2022-08-24T04:11:57;22.40;99.90
29207;DHT22;16247;50.840;4.382;2022-08-24T04:14:23;22.40;99.90
29207;DHT22;16247;50.840;4.382;2022-08-24T04:16:49;22.50;99.90
29207;DHT22;16247;50.840;4.382;2022-08-24T04:19:15;22.50;99.90
29207;DHT22;16247;50.840;4.382;2022-08-24T04:21:41;22.40;99.90
29207;DHT22;16247;50.840;4.382;2022-08-24T04:24:09;22.40;99.90
29207;DHT22;16247;50.840;4.382;2022-08-24T04:26:36;22.40;99.90
29207;DHT22;16247;50.840;4.382;2022-08-24T04:29:03;22.30;99.90
29207;DHT22;16247;50.840;4.382;2022-08-24T04:31:29;22.40;99.90
29207;DHT22;16247;50.840;4.382;2022-08-24T04:33:55;22.40;99.90
29207;DHT22;16247;50.840;4.382;2022-08-24T04:36:21;22.40;99.90
29207;DHT22;16247;50.840;4.382;2022-08-24T04:38:48;22.40;99.90
29207;DHT22;16247;50.840;4.382;2022-08-24T04:41:16;22.30;99.90
29207;DHT22;16247;50.840;4.382;2022-08-24T04:43:44;22.40;99.90
29207;DHT22;16247;50.840;4.382;2022-08-24T04:46:12;22.40;99.90
29207;DHT22;16247;50.840;4.382;2022-08-24T04:48:43;22.40;99.90
29207;DHT22;16247;50.840;4.382;2022-08-24T04:51:11;22.50;99.90
29207;DHT22;16247;50.840;4.382;2022-08-24T04:53:37;22.60;99.90
29207;DHT22;16247;50.840;4.382;2022-08-24T04:56:08;22.60;99.90
29207;DHT22;16247;50.840;4.382;2022-08-24T04:58:33;22.60;99.90
29207;DHT22;16247;50.840;4.382;2022-08-24T05:01:00;22.60;99.90
29207;DHT22;16247;50.840;4.382;2022-08-24T05:03:25;22.50;99.90
29207;DHT22;16247;50.840;4.382;2022-08-24T05:05:51;22.50;99.90
29207;DHT22;16247;50.840;4.382;2022-08-24T05:08:19;22.50;99.90
29207;DHT22;16247;50.840;4.382;2022-08-24T05:10:46;22.50;99.90
29207;DHT22;16247;50.840;4.382;2022-08-24T05:13:14;22.50;99.90
29207;DHT22;16247;50.840;4.382;2022-08-24T05:15:45;22.40;99.90
29207;DHT22;16247;50.840;4.382;2022-08-24T05:18:13;22.60;99.90
29207;DHT22;16247;50.840;4.382;2022-08-24T05:20:39;22.60;99.90
29207;DHT22;16247;50.840;4.382;2022-08-24T05:23:05;22.50;99.90
29207;DHT22;16247;50.840;4.382;2022-08-24T05:25:31;22.40;99.90
29207;DHT22;16247;50.840;4.382;2022-08-24T05:27:57;22.30;99.90
29207;DHT22;16247;50.840;4.382;2022-08-24T05:30:22;22.30;99.90
29207;DHT22;16247;50.840;4.382;2022-08-24T05:32:48;22.30;99.90
29207;DHT22;16247;50.840;4.382;2022-08-24T05:35:14;22.30;99.90
29207;DHT22;16247;50.840;4.382;2022-08-24T05:37:39;22.40;99.90
29207;DHT22;16247;50.840;4.382;2022-08-24T05:40:10;22.40;99.90
29207;DHT22;16247;50.840;4.382;2022-08-24T05:42:37;22.40;99.90
29207;DHT22;16247;50.840;4.382;2022-08-24T05:45:04;22.40;99.90
29207;DHT22;16247;50.840;4.382;2022-08-24T05:47:30;22.50;99.90
29207;DHT22;16247;50.840;4.382;2022-08-24T05:49:55;22.50;99.90
29207;DHT22;16247;50.840;4.382;2022-08-24T05:52:22;22.60;99.90
29207;DHT22;16247;50.840;4.382;2022-08-24T05:54:53;22.60;99.90
29207;DHT22;16247;50.840;4.382;2022-08-24T05:57:21;22.60;99.90
29207;DHT22;16247;50.840;4.382;2022-08-24T05:59:48;22.60;99.90
29207;DHT22;16247;50.840;4.382;2022-08-24T06:02:14;22.70;99.90
29207;DHT22;16247;50.840;4.382;2022-08-24T06:04:40;22.70;99.90
29207;DHT22;16247;50.840;4.382;2022-08-24T06:07:06;22.70;99.90
29207;DHT22;16247;50.840;4.382;2022-08-24T06:09:36;22.80;99.90
29207;DHT22;16247;50.840;4.382;2022-08-24T06:12:03;22.80;99.90
29207;DHT22;16247;50.840;4.382;2022-08-24T06:14:31;22.90;99.90
29207;DHT22;16247;50.840;4.382;2022-08-24T06:16:59;22.90;99.90
29207;DHT22;16247;50.840;4.382;2022-08-24T06:19:26;23.00;99.90
29207;DHT22;16247;50.840;4.382;2022-08-24T06:21:53;23.10;99.90
29207;DHT22;16247;50.840;4.382;2022-08-24T06:24:20;23.40;99.90
29207;DHT22;16247;50.840;4.382;2022-08-24T06:27:12;23.50;99.90
29207;DHT22;16247;50.840;4.382;2022-08-24T06:32:14;23.40;99.90
29207;DHT22;16247;50.840;4.382;2022-08-24T06:34:41;23.40;99.90
29207;DHT22;16247;50.840;4.382;2022-08-24T06:37:07;23.50;99.90
29207;DHT22;16247;50.840;4.382;2022-08-24T06:39:32;23.50;99.90
29207;DHT22;16247;50.840;4.382;2022-08-24T06:41:58;23.50;99.90
29207;DHT22;16247;50.840;4.382;2022-08-24T06:44:25;23.50;99.90
29207;DHT22;16247;50.840;4.382;2022-08-24T06:46:53;23.70;99.90
29207;DHT22;16247;50.840;4.382;2022-08-24T06:49:19;23.80;99.90
29207;DHT22;16247;50.840;4.382;2022-08-24T06:51:45;23.90;99.90
29207;DHT22;16247;50.840;4.382;2022-08-24T06:54:10;24.00;99.90
29207;DHT22;16247;50.840;4.382;2022-08-24T06:56:37;24.20;99.90
29207;DHT22;16247;50.840;4.382;2022-08-24T06:59:03;24.20;99.90
29207;DHT22;16247;50.840;4.382;2022-08-24T07:01:29;24.30;99.90
29207;DHT22;16247;50.840;4.382;2022-08-24T07:03:55;24.40;99.90
29207;DHT22;16247;50.840;4.382;2022-08-24T07:06:22;24.50;99.90
29207;DHT22;16247;50.840;4.382;2022-08-24T07:08:48;24.50;99.90
29207;DHT22;16247;50.840;4.382;2022-08-24T07:11:16;24.50;99.90
29207;DHT22;16247;50.840;4.382;2022-08-24T07:13:42;24.60;99.90
29207;DHT22;16247;50.840;4.382;2022-08-24T07:16:08;24.80;99.90
29207;DHT22;16247;50.840;4.382;2022-08-24T07:18:35;24.80;99.90
29207;DHT22;16247;50.840;4.382;2022-08-24T07:21:02;24.90;99.90
29207;DHT22;16247;50.840;4.382;2022-08-24T07:23:28;24.80;99.90
29207;DHT22;16247;50.840;4.382;2022-08-24T07:25:54;24.80;99.90
29207;DHT22;16247;50.840;4.382;2022-08-24T07:28:20;24.90;99.90
29207;DHT22;16247;50.840;4.382;2022-08-24T07:30:45;24.90;99.90
29207;DHT22;16247;50.840;4.382;2022-08-24T07:33:11;25.00;99.90
29207;DHT22;16247;50.840;4.382;2022-08-24T07:35:37;25.00;99.90
29207;DHT22;16247;50.840;4.382;2022-08-24T07:38:05;25.00;99.90
29207;DHT22;16247;50.840;4.382;2022-08-24T07:40:32;25.10;99.90
29207;DHT22;16247;50.840;4.382;2022-08-24T07:42:58;25.30;99.90
29207;DHT22;16247;50.840;4.382;2022-08-24T07:45:25;25.40;99.90
29207;DHT22;16247;50.840;4.382;2022-08-24T07:47:52;25.60;99.90
29207;DHT22;16247;50.840;4.382;2022-08-24T07:50:18;25.70;99.90
29207;DHT22;16247;50.840;4.382;2022-08-24T07:52:46;25.90;99.90
29207;DHT22;16247;50.840;4.382;2022-08-24T07:55:13;25.80;99.90
29207;DHT22;16247;50.840;4.382;2022-08-24T07:57:40;25.80;99.90
29207;DHT22;16247;50.840;4.382;2022-08-24T08:00:08;25.90;99.90
29207;DHT22;16247;50.840;4.382;2022-08-24T08:02:34;26.00;99.90
29207;DHT22;16247;50.840;4.382;2022-08-24T08:05:00;26.10;99.90
29207;DHT22;16247;50.840;4.382;2022-08-24T08:07:25;26.20;99.90
29207;DHT22;16247;50.840;4.382;2022-08-24T08:09:51;26.20;99.90
29207;DHT22;16247;50.840;4.382;2022-08-24T08:12:17;26.10;99.90
29207;DHT22;16247;50.840;4.382;2022-08-24T08:14:44;26.20;99.90
29207;DHT22;16247;50.840;4.382;2022-08-24T08:17:11;26.40;99.90
29207;DHT22;16247;50.840;4.382;2022-08-24T08:19:39;26.60;99.90
29207;DHT22;16247;50.840;4.382;2022-08-24T08:22:07;26.60;99.90
29207;DHT22;16247;50.840;4.382;2022-08-24T08:24:53;26.50;99.90
29207;DHT22;16247;50.840;4.382;2022-08-24T08:27:20;26.60;99.90
29207;DHT22;16247;50.840;4.382;2022-08-24T08:29:48;26.70;99.90
29207;DHT22;16247;50.840;4.382;2022-08-24T08:32:14;26.80;99.90
29207;DHT22;16247;50.840;4.382;2022-08-24T08:34:42;26.70;99.90
29207;DHT22;16247;50.840;4.382;2022-08-24T08:37:09;26.80;99.90
29207;DHT22;16247;50.840;4.382;2022-08-24T08:39:35;26.90;99.90
29207;DHT22;16247;50.840;4.382;2022-08-24T08:45:13;26.80;99.90
29207;DHT22;16247;50.840;4.382;2022-08-24T08:55:47;26.90;99.90
29207;DHT22;16247;50.840;4.382;2022-08-24T09:06:30;27.10;99.90
29207;DHT22;16247;50.840;4.382;2022-08-24T09:09:18;27.00;99.90
29207;DHT22;16247;50.840;4.382;2022-08-24T09:12:23;26.90;99.90
29207;DHT22;16247;50.840;4.382;2022-08-24T09:17:56;26.80;99.90
29207;DHT22;16247;50.840;4.382;2022-08-24T09:20:40;26.80;99.90
29207;DHT22;16247;50.840;4.382;2022-08-24T09:23:30;26.70;99.90
29207;DHT22;16247;50.840;4.382;2022-08-24T09:29:18;26.70;99.90
29207;DHT22;16247;50.840;4.382;2022-08-24T09:32:00;27.10;99.90
29207;DHT22;16247;50.840;4.382;2022-08-24T09:34:45;27.10;99.90
29207;DHT22;16247;50.840;4.382;2022-08-24T09:40:37;27.40;99.90
29207;DHT22;16247;50.840;4.382;2022-08-24T09:52:15;27.70;99.90
29207;DHT22;16247;50.840;4.382;2022-08-24T09:55:25;27.90;99.90
29207;DHT22;16247;50.840;4.382;2022-08-24T10:00:36;28.20;99.90
29207;DHT22;16247;50.840;4.382;2022-08-24T10:09:06;28.20;99.90
29207;DHT22;16247;50.840;4.382;2022-08-24T10:20:22;28.80;99.90
29207;DHT22;16247;50.840;4.382;2022-08-24T10:31:05;29.10;99.90
29207;DHT22;16247;50.840;4.382;2022-08-24T10:38:56;29.30;99.90
29207;DHT22;16247;50.840;4.382;2022-08-24T10:42:03;29.30;99.90
29207;DHT22;16247;50.840;4.382;2022-08-24T10:47:24;29.40;99.90
29207;DHT22;16247;50.840;4.382;2022-08-24T10:55:13;29.90;99.90
29207;DHT22;16247;50.840;4.382;2022-08-24T11:00:15;30.20;99.90
29207;DHT22;16247;50.840;4.382;2022-08-24T11:02:45;30.00;99.90
29207;DHT22;16247;50.840;4.382;2022-08-24T11:05:14;30.20;99.90
29207;DHT22;16247;50.840;4.382;2022-08-24T11:08:08;30.30;99.90
29207;DHT22;16247;50.840;4.382;2022-08-24T11:10:38;30.30;99.90
29207;DHT22;16247;50.840;4.382;2022-08-24T11:13:22;30.40;99.90
29207;DHT22;16247;50.840;4.382;2022-08-24T11:15:53;30.60;99.90
29207;DHT22;16247;50.840;4.382;2022-08-24T11:18:19;30.70;99.90
29207;DHT22;16247;50.840;4.382;2022-08-24T11:20:48;30.70;99.90
29207;DHT22;16247;50.840;4.382;2022-08-24T11:23:16;30.70;99.90
29207;DHT22;16247;50.840;4.382;2022-08-24T11:26:09;30.80;99.90
29207;DHT22;16247;50.840;4.382;2022-08-24T11:28:44;30.90;99.90
29207;DHT22;16247;50.840;4.382;2022-08-24T11:31:18;31.00;99.90
29207;DHT22;16247;50.840;4.382;2022-08-24T11:33:47;31.00;99.90
29207;DHT22;16247;50.840;4.382;2022-08-24T11:36:25;31.00;99.90
29207;DHT22;16247;50.840;4.382;2022-08-24T11:55:17;30.90;99.90
29207;DHT22;16247;50.840;4.382;2022-08-24T12:00:55;31.10;99.90
29207;DHT22;16247;50.840;4.382;2022-08-24T12:09:03;31.20;99.90
29207;DHT22;16247;50.840;4.382;2022-08-24T12:11:38;31.20;99.90
29207;DHT22;16247;50.840;4.382;2022-08-24T12:14:17;31.10;99.90
29207;DHT22;16247;50.840;4.382;2022-08-24T12:16:56;31.10;99.90
29207;DHT22;16247;50.840;4.382;2022-08-24T12:19:27;31.20;99.90
29207;DHT22;16247;50.840;4.382;2022-08-24T12:21:59;31.30;99.90
29207;DHT22;16247;50.840;4.382;2022-08-24T12:24:49;31.40;99.90
29207;DHT22;16247;50.840;4.382;2022-08-24T12:27:29;31.40;99.90
29207;DHT22;16247;50.840;4.382;2022-08-24T12:30:15;31.40;99.90
29207;DHT22;16247;50.840;4.382;2022-08-24T12:32:45;31.70;99.90
29207;DHT22;16247;50.840;4.382;2022-08-24T12:35:37;31.80;99.90
29207;DHT22;16247;50.840;4.382;2022-08-24T12:40:48;31.90;99.90
29207;DHT22;16247;50.840;4.382;2022-08-24T12:46:22;31.80;99.90
29207;DHT22;16247;50.840;4.382;2022-08-24T12:48:56;31.90;99.90
29207;DHT22;16247;50.840;4.382;2022-08-24T13:00:01;31.80;99.90
29207;DHT22;16247;50.840;4.382;2022-08-24T13:02:41;31.80;99.90
29207;DHT22;16247;50.840;4.382;2022-08-24T13:05:15;31.60;99.90
29207;DHT22;16247;50.840;4.382;2022-08-24T13:07:46;31.50;99.90
29207;DHT22;16247;50.840;4.382;2022-08-24T13:12:54;31.40;99.90
29207;DHT22;16247;50.840;4.382;2022-08-24T13:23:15;31.80;99.90
29207;DHT22;16247;50.840;4.382;2022-08-24T13:44:28;32.50;99.90
29207;DHT22;16247;50.840;4.382;2022-08-24T13:46:50;32.30;99.90
29207;DHT22;16247;50.840;4.382;2022-08-24T13:49:44;32.20;99.90
29207;DHT22;16247;50.840;4.382;2022-08-24T13:55:08;32.00;99.90
29207;DHT22;16247;50.840;4.382;2022-08-24T13:58:02;32.10;99.90
29207;DHT22;16247;50.840;4.382;2022-08-24T14:06:17;32.70;99.90
29207;DHT22;16247;50.840;4.382;2022-08-24T14:19:43;32.60;99.90
29207;DHT22;16247;50.840;4.382;2022-08-24T14:24:43;32.70;99.90
29207;DHT22;16247;50.840;4.382;2022-08-24T14:27:42;32.80;99.90
29207;DHT22;16247;50.840;4.382;2022-08-24T14:33:08;32.90;99.90
29207;DHT22;16247;50.840;4.382;2022-08-24T14:44:01;32.80;99.90
29207;DHT22;16247;50.840;4.382;2022-08-24T14:49:40;32.50;99.90
29207;DHT22;16247;50.840;4.382;2022-08-24T14:57:43;32.60;99.90
29207;DHT22;16247;50.840;4.382;2022-08-24T15:00:24;32.70;99.90
29207;DHT22;16247;50.840;4.382;2022-08-24T15:08:10;32.40;99.90
29207;DHT22;16247;50.840;4.382;2022-08-24T15:10:44;32.60;99.90
29207;DHT22;16247;50.840;4.382;2022-08-24T15:13:35;32.50;99.90
29207;DHT22;16247;50.840;4.382;2022-08-24T15:16:13;32.40;99.90
29207;DHT22;16247;50.840;4.382;2022-08-24T15:21:44;32.40;99.90
29207;DHT22;16247;50.840;4.382;2022-08-24T15:24:17;32.40;99.90
29207;DHT22;16247;50.840;4.382;2022-08-24T15:29:55;32.40;99.90
29207;DHT22;16247;50.840;4.382;2022-08-24T15:32:24;32.30;99.90
29207;DHT22;16247;50.840;4.382;2022-08-24T15:34:54;32.20;99.90
29207;DHT22;16247;50.840;4.382;2022-08-24T15:37:37;32.10;99.90
29207;DHT22;16247;50.840;4.382;2022-08-24T15:40:17;32.10;99.90
29207;DHT22;16247;50.840;4.382;2022-08-24T15:42:47;32.10;99.90
29207;DHT22;16247;50.840;4.382;2022-08-24T15:45:15;32.20;99.90
29207;DHT22;16247;50.840;4.382;2022-08-24T15:47:44;32.30;99.90
29207;DHT22;16247;50.840;4.382;2022-08-24T15:50:24;32.30;99.90
29207;DHT22;16247;50.840;4.382;2022-08-24T15:53:05;32.30;99.90
29207;DHT22;16247;50.840;4.382;2022-08-24T15:55:41;32.30;99.90
29207;DHT22;16247;50.840;4.382;2022-08-24T15:58:34;32.30;99.90
29207;DHT22;16247;50.840;4.382;2022-08-24T16:04:05;32.20;99.90
29207;DHT22;16247;50.840;4.382;2022-08-24T16:06:44;32.30;99.90
29207;DHT22;16247;50.840;4.382;2022-08-24T16:09:35;32.30;99.90
29207;DHT22;16247;50.840;4.382;2022-08-24T16:17:55;32.60;99.90
29207;DHT22;16247;50.840;4.382;2022-08-24T16:22:57;32.60;99.90
29207;DHT22;16247;50.840;4.382;2022-08-24T16:25:33;32.50;99.90
29207;DHT22;16247;50.840;4.382;2022-08-24T16:30:53;32.40;99.90
29207;DHT22;16247;50.840;4.382;2022-08-24T16:33:40;32.40;99.90
29207;DHT22;16247;50.840;4.382;2022-08-24T16:36:09;32.30;99.90
29207;DHT22;16247;50.840;4.382;2022-08-24T16:38:38;32.30;99.90
29207;DHT22;16247;50.840;4.382;2022-08-24T16:41:08;32.40;99.90
29207;DHT22;16247;50.840;4.382;2022-08-24T16:43:36;32.40;99.90
29207;DHT22;16247;50.840;4.382;2022-08-24T16:46:04;32.40;99.90
29207;DHT22;16247;50.840;4.382;2022-08-24T16:48:31;32.60;99.90
29207;DHT22;16247;50.840;4.382;2022-08-24T16:50:57;32.70;99.90
29207;DHT22;16247;50.840;4.382;2022-08-24T16:53:24;32.70;99.90
29207;DHT22;16247;50.840;4.382;2022-08-24T16:55:51;32.40;99.90
29207;DHT22;16247;50.840;4.382;2022-08-24T16:58:17;32.40;99.90
29207;DHT22;16247;50.840;4.382;2022-08-24T17:00:43;32.30;99.90
29207;DHT22;16247;50.840;4.382;2022-08-24T17:03:11;32.20;99.90
29207;DHT22;16247;50.840;4.382;2022-08-24T17:05:38;32.10;99.90
29207;DHT22;16247;50.840;4.382;2022-08-24T17:08:05;32.20;99.90
29207;DHT22;16247;50.840;4.382;2022-08-24T17:10:31;32.30;99.90
29207;DHT22;16247;50.840;4.382;2022-08-24T17:12:56;32.30;99.90
29207;DHT22;16247;50.840;4.382;2022-08-24T17:15:22;32.30;99.90
29207;DHT22;16247;50.840;4.382;2022-08-24T17:17:59;32.30;99.90
29207;DHT22;16247;50.840;4.382;2022-08-24T17:20:27;32.40;99.90
29207;DHT22;16247;50.840;4.382;2022-08-24T17:22:53;32.30;99.90
29207;DHT22;16247;50.840;4.382;2022-08-24T17:25:19;32.20;99.90
29207;DHT22;16247;50.840;4.382;2022-08-24T17:27:45;32.00;99.90
29207;DHT22;16247;50.840;4.382;2022-08-24T17:30:13;31.90;99.90
29207;DHT22;16247;50.840;4.382;2022-08-24T17:32:42;31.80;99.90
29207;DHT22;16247;50.840;4.382;2022-08-24T17:35:08;31.70;99.90
29207;DHT22;16247;50.840;4.382;2022-08-24T17:37:35;31.80;99.90
29207;DHT22;16247;50.840;4.382;2022-08-24T17:40:02;31.80;99.90
29207;DHT22;16247;50.840;4.382;2022-08-24T17:42:29;31.70;99.90
29207;DHT22;16247;50.840;4.382;2022-08-24T17:44:56;31.80;99.90
29207;DHT22;16247;50.840;4.382;2022-08-24T17:47:21;31.80;99.90
29207;DHT22;16247;50.840;4.382;2022-08-24T17:49:47;31.80;99.90
29207;DHT22;16247;50.840;4.382;2022-08-24T17:52:13;31.80;99.90
29207;DHT22;16247;50.840;4.382;2022-08-24T17:54:39;31.80;99.90
29207;DHT22;16247;50.840;4.382;2022-08-24T17:57:06;31.80;99.90
29207;DHT22;16247;50.840;4.382;2022-08-24T17:59:33;31.50;99.90
29207;DHT22;16247;50.840;4.382;2022-08-24T18:02:03;31.30;99.90
29207;DHT22;16247;50.840;4.382;2022-08-24T18:04:30;31.40;99.90
29207;DHT22;16247;50.840;4.382;2022-08-24T18:07:17;31.50;99.90
29207;DHT22;16247;50.840;4.382;2022-08-24T18:09:53;31.50;99.90
29207;DHT22;16247;50.840;4.382;2022-08-24T18:12:21;31.40;99.90
29207;DHT22;16247;50.840;4.382;2022-08-24T18:14:47;31.20;99.90
29207;DHT22;16247;50.840;4.382;2022-08-24T18:17:28;31.20;99.90
29207;DHT22;16247;50.840;4.382;2022-08-24T18:19:55;31.10;99.90
29207;DHT22;16247;50.840;4.382;2022-08-24T18:22:20;31.00;99.90
29207;DHT22;16247;50.840;4.382;2022-08-24T18:24:46;31.00;99.90
29207;DHT22;16247;50.840;4.382;2022-08-24T18:27:16;31.00;99.90
29207;DHT22;16247;50.840;4.382;2022-08-24T18:29:43;31.10;99.90
29207;DHT22;16247;50.840;4.382;2022-08-24T18:32:09;31.10;99.90
29207;DHT22;16247;50.840;4.382;2022-08-24T18:34:36;31.10;99.90
29207;DHT22;16247;50.840;4.382;2022-08-24T18:37:02;31.00;99.90
29207;DHT22;16247;50.840;4.382;2022-08-24T18:39:28;30.90;99.90
29207;DHT22;16247;50.840;4.382;2022-08-24T18:41:54;30.90;99.90
29207;DHT22;16247;50.840;4.382;2022-08-24T18:44:22;30.90;99.90
29207;DHT22;16247;50.840;4.382;2022-08-24T18:46:48;30.70;99.90
29207;DHT22;16247;50.840;4.382;2022-08-24T18:49:16;30.70;99.90
29207;DHT22;16247;50.840;4.382;2022-08-24T18:51:42;30.70;99.90
29207;DHT22;16247;50.840;4.382;2022-08-24T18:54:15;30.60;99.90
29207;DHT22;16247;50.840;4.382;2022-08-24T18:56:42;30.60;99.90
29207;DHT22;16247;50.840;4.382;2022-08-24T18:59:11;30.50;99.90
29207;DHT22;16247;50.840;4.382;2022-08-24T19:01:38;30.40;99.90
29207;DHT22;16247;50.840;4.382;2022-08-24T19:04:23;30.40;99.90
29207;DHT22;16247;50.840;4.382;2022-08-24T19:06:49;30.30;99.90
29207;DHT22;16247;50.840;4.382;2022-08-24T19:09:15;30.10;99.90
29207;DHT22;16247;50.840;4.382;2022-08-24T19:11:40;30.00;99.90
29207;DHT22;16247;50.840;4.382;2022-08-24T19:14:08;30.00;99.90
29207;DHT22;16247;50.840;4.382;2022-08-24T19:16:34;29.80;99.90
29207;DHT22;16247;50.840;4.382;2022-08-24T19:18:59;29.70;99.90
29207;DHT22;16247;50.840;4.382;2022-08-24T19:21:26;29.60;99.90
29207;DHT22;16247;50.840;4.382;2022-08-24T19:23:54;29.50;99.90